Aeroporto :
LOGIN :

Iscrizione | Disclaimer

   EN    FR    IT 

 










Sommario :    VFR   VFR Marginale   IFR   IFR Intensivo   IFR Molto Intensivo
Visibilità : 
Base nubi : 
>= 8 km
>= 3000ft
5 / 8 km
1000 / 3000 ft
1500m / 5 km
500 / 1000 ft
800 / 1500m
200 / 500 ft
< 800m
< 200 ft
Simboli :   Temporali  Nebbia  Neve Forte  Precipitazioni Forti  Vento > 20 kt
SIGMETs :   Varie  Temporali  Ghiacco  Turbolenza  Onda orograficha  Ceneri Vulcaniche






- Altitudine del aeroporto : 202 ft
- Codice IATA : SQZ


EGXP - RAF Scampton

ULTIMO METAR :
  • 231050Z 19006KT 8000 RA BKN006 BKN018 BKN024 15/15 Q0997

METARs OBSOLETI :
  • 230950Z AUTO 19006KT 9999 // FEW050/// BKN080/// 15/14 Q0998
  • 230850Z AUTO 22006KT 9999 // BKN042/// 14/14 Q0998

TAF TAF EGXP
Valido dal 23 a 12 ore il 23 a 18 ore UTC


231018Z 2312/2318 22012KT 9999 BKN030
TEMPO 2312/2318 6000 RA BKN010
PROB40
TEMPO 2312/2315 3000 RADZ BKN004
PROB40 2315/2318 BKN005



MetMap, La meteo Aeronautica in un colpo d'occhio ! - Copyright ORBIFLY Dicembre 2007 - Disclaimer

ORBIFLY MET'MAP TEAM :

Programmazione e sviluppo : Alexandra Zaïnal
Concezione : Baudouin d'Aumeries
Aiuto per la programmazione : Marc-Olivier Méhu
Supporto tecnico e logistico : Manuel Goepfert
Aiuto per la traduzione : Arnaldo La Scala

Contatto : metmap@orbifly.com




FONTI E CREDITI :

   NOAA